Time;durP1;ratioP1;P1;durP2;ratioP2;P2;SDS_P1;SDS_P2;PMS_P1;PMS_P2;Temp;Humidity;BMP_temperature;BMP_pressure;BME280_temperature;BME280_humidity;BME280_pressure;Samples;Min_cycle;Max_cycle;Signal;HPM_P1;HPM_P2
2023/06/24 00:02:03;;;;;;;14.52;10.02;;;;;;;20.48;87.89;94588.66;5104931;28;20562;-73
2023/06/24 00:04:30;;;;;;;12.75;9.75;;;;;;;20.49;87.87;94590.25;5110408;28;20202;-73
2023/06/24 00:06:58;;;;;;;14.30;10.10;;;;;;;20.44;88.25;94592.59;5123747;27;20281;-73
2023/06/24 00:09:27;;;;;;;14.25;10.10;;;;;;;20.48;88.09;94591.41;5110134;28;20675;-74
2023/06/24 00:11:54;;;;;;;12.20;8.80;;;;;;;20.54;87.03;94592.59;5120839;27;21156;-73
2023/06/24 00:14:21;;;;;;;13.48;9.85;;;;;;;20.50;87.79;94591.78;5089579;28;20232;-73
2023/06/24 00:16:51;;;;;;;15.18;10.02;;;;;;;20.54;87.36;94589.06;5092451;28;20214;-73
2023/06/24 00:19:19;;;;;;;13.80;9.73;;;;;;;20.56;87.42;94579.22;5110401;28;20201;-73
2023/06/24 00:21:46;;;;;;;15.15;9.90;;;;;;;20.53;87.13;94592.97;5109644;28;20731;-73
2023/06/24 00:24:13;;;;;;;12.93;9.55;;;;;;;20.45;87.71;94594.94;5109942;28;20258;-73
2023/06/24 00:26:40;;;;;;;12.77;9.10;;;;;;;20.37;88.53;94593.34;5109365;28;20291;-73
2023/06/24 00:29:06;;;;;;;15.73;10.00;;;;;;;20.39;88.29;94599.25;5110055;28;20652;-73
2023/06/24 00:31:33;;;;;;;13.55;9.70;;;;;;;20.37;88.57;94593.34;5109409;28;20213;-73
2023/06/24 00:34:00;;;;;;;12.63;9.50;;;;;;;20.48;87.86;94599.69;5110088;28;20209;-73
2023/06/24 00:36:28;;;;;;;12.13;9.20;;;;;;;20.46;87.78;94591.03;5109454;28;20210;-73
2023/06/24 00:38:56;;;;;;;13.95;10.50;;;;;;;20.49;87.58;94593.00;5108746;28;20202;-73
2023/06/24 00:41:23;;;;;;;11.48;9.30;;;;;;;20.45;87.68;94599.66;5090257;28;20293;-73
2023/06/24 00:43:50;;;;;;;14.27;9.68;;;;;;;20.38;88.27;94605.94;5089087;28;20260;-73
2023/06/24 00:46:19;;;;;;;18.05;10.43;;;;;;;20.37;88.32;94590.59;5108051;28;20252;-73
2023/06/24 00:48:46;;;;;;;13.38;9.25;;;;;;;20.35;88.56;94592.94;5109444;28;20233;-74
2023/06/24 00:51:13;;;;;;;12.80;9.40;;;;;;;20.32;89.47;94595.69;5115190;27;20609;-73
2023/06/24 00:53:41;;;;;;;16.25;10.05;;;;;;;20.24;89.96;94597.63;5104575;27;20229;-73
2023/06/24 00:56:08;;;;;;;14.20;10.40;;;;;;;20.13;90.79;94577.56;5108703;28;20214;-73
2023/06/24 00:58:38;;;;;;;13.93;10.02;;;;;;;20.10;90.81;94584.63;5109659;28;20214;-73
2023/06/24 01:01:05;;;;;;;15.40;9.60;;;;;;;20.11;91.09;94586.19;5096168;28;20665;-73
2023/06/24 01:03:32;;;;;;;16.90;10.07;;;;;;;20.13;91.23;94577.56;5109602;28;20199;-73
2023/06/24 01:05:59;;;;;;;17.23;11.20;;;;;;;20.27;91.28;94577.59;5101901;28;20299;-72
2023/06/24 01:08:26;;;;;;;16.13;11.18;;;;;;;20.23;91.41;94582.28;5092963;28;20209;-73
2023/06/24 01:10:54;;;;;;;17.15;9.93;;;;;;;20.18;90.51;94568.94;5093355;28;20206;-73
2023/06/24 01:13:22;;;;;;;14.13;9.60;;;;;;;20.08;91.32;94581.50;5092670;28;20259;-73
2023/06/24 01:15:49;;;;;;;14.18;10.10;;;;;;;20.06;91.25;94588.56;5101227;28;20205;-73
2023/06/24 01:18:24;;;;;;;17.67;9.80;;;;;;;19.95;93.00;94587.75;5113107;28;20202;-73
2023/06/24 01:20:56;;;;;;;17.25;11.00;;;;;;;19.87;93.94;94582.19;5113268;28;20211;-73
2023/06/24 01:23:51;;;;;;;15.60;10.15;;;;;;;19.85;94.64;94568.03;5123734;27;20198;-73
2023/06/24 01:26:59;;;;;;;17.25;10.63;;;;;;;19.88;94.44;94567.28;5093049;28;20295;-73
2023/06/24 01:29:44;;;;;;;16.77;10.52;;;;;;;19.74;95.25;94567.22;5113579;28;20205;-73
2023/06/24 01:32:19;;;;;;;17.75;11.00;;;;;;;19.72;94.56;94568.78;5113098;28;20197;-73
2023/06/24 01:34:54;;;;;;;16.27;10.02;;;;;;;19.77;92.90;94566.47;5113061;28;20258;-73
2023/06/24 01:37:26;;;;;;;16.80;9.57;;;;;;;19.90;91.64;94574.34;5113164;28;20211;-73
2023/06/24 01:39:59;;;;;;;13.00;8.77;;;;;;;19.81;91.80;94567.28;5118146;27;20590;-73
2023/06/24 01:42:28;;;;;;;13.57;9.35;;;;;;;19.83;91.45;94581.41;5107042;27;20245;-73
2023/06/24 01:44:56;;;;;;;17.13;10.73;;;;;;;19.46;94.54;94584.34;5112070;28;20205;-73
2023/06/24 01:47:28;;;;;;;15.05;10.45;;;;;;;19.16;96.75;94594.78;5112120;28;20230;-74
2023/06/24 01:49:57;;;;;;;18.88;10.02;;;;;;;18.98;97.99;94608.41;5112973;28;20198;-73
2023/06/24 01:52:26;;;;;;;15.00;10.85;;;;;;;19.02;98.48;94594.69;5114686;27;20206;-73
2023/06/24 01:54:56;;;;;;;18.92;11.25;;;;;;;18.96;98.90;94613.47;5114349;27;20264;-73
2023/06/24 01:57:23;;;;;;;18.02;11.30;;;;;;;19.06;99.38;94604.53;5092523;28;20253;-73
2023/06/24 01:59:52;;;;;;;21.42;11.52;;;;;;;19.13;99.11;94615.53;5113523;27;20205;-73
2023/06/24 02:02:20;;;;;;;21.27;10.88;;;;;;;19.18;98.96;94617.94;5101231;27;20250;-73
2023/06/24 02:04:50;;;;;;;18.15;11.73;;;;;;;19.25;98.83;94616.41;5112112;28;20262;-73
2023/06/24 02:07:19;;;;;;;18.30;11.18;;;;;;;19.35;98.36;94615.69;5116765;27;20240;-73
2023/06/24 02:09:47;;;;;;;17.60;11.18;;;;;;;19.53;97.84;94616.63;5121790;27;20609;-73
2023/06/24 02:12:13;;;;;;;16.30;11.48;;;;;;;19.55;97.96;94625.25;5116957;27;20373;-74
2023/06/24 02:14:42;;;;;;;18.48;11.02;;;;;;;19.52;98.15;94615.84;5110236;27;20256;-73
2023/06/24 02:17:12;;;;;;;18.17;11.60;;;;;;;19.47;98.11;94613.41;5091639;28;20611;-73
2023/06/24 02:19:39;;;;;;;22.40;11.32;;;;;;;19.47;97.93;94613.41;5090994;28;20206;-72
2023/06/24 02:22:09;;;;;;;23.55;11.88;;;;;;;19.39;99.03;94619.25;5111536;28;20217;-73
2023/06/24 02:24:38;;;;;;;21.40;10.68;;;;;;;19.40;99.07;94618.09;5111828;28;20312;-73
2023/06/24 02:27:07;;;;;;;16.42;10.95;;;;;;;19.42;99.04;94627.50;5111860;28;20237;-73
2023/06/24 02:29:37;;;;;;;19.33;10.65;;;;;;;19.32;99.33;94628.22;5112076;28;20278;-73
2023/06/24 02:32:04;;;;;;;15.02;10.30;;;;;;;19.38;99.57;94636.91;5111698;28;20312;-73
2023/06/24 02:34:31;;;;;;;18.15;10.02;;;;;;;19.47;98.61;94645.59;5126160;27;20212;-72
2023/06/24 02:36:57;;;;;;;14.45;10.07;;;;;;;19.50;98.08;94655.84;5111907;28;20212;-73
2023/06/24 02:39:26;;;;;;;15.40;9.10;;;;;;;19.35;98.54;94662.41;5112080;28;20227;-73
2023/06/24 02:41:52;;;;;;;13.98;9.40;;;;;;;19.42;98.33;94665.19;5111841;28;20241;-73
2023/06/24 02:44:19;;;;;;;15.88;9.00;;;;;;;19.45;98.27;94656.97;5110804;28;20194;-73
2023/06/24 02:46:48;;;;;;;16.95;8.90;;;;;;;19.50;98.07;94662.13;5110756;28;20232;-73
2023/06/24 02:49:18;;;;;;;12.98;9.15;;;;;;;19.53;97.47;94666.09;5111272;28;20215;-73
2023/06/24 02:51:45;;;;;;;15.98;9.85;;;;;;;19.59;97.69;94659.03;5111648;28;20452;-73
2023/06/24 02:54:14;;;;;;;16.50;9.40;;;;;;;19.66;97.22;94659.09;5111609;28;20258;-74
2023/06/24 02:56:44;;;;;;;17.08;9.45;;;;;;;19.56;97.96;94665.28;5111443;28;20267;-73
2023/06/24 02:59:11;;;;;;;16.00;8.63;;;;;;;19.43;99.10;94673.03;5106922;28;20198;-73
2023/06/24 03:01:44;;;;;;;15.15;9.52;;;;;;;19.55;99.12;94679.41;5090326;28;20730;-73
2023/06/24 03:04:12;;;;;;;16.20;10.00;;;;;;;19.78;98.22;94678.00;5109623;28;20646;-73
2023/06/24 03:06:39;;;;;;;13.18;9.18;;;;;;;20.15;96.10;94671.47;5110138;28;20233;-73
2023/06/24 03:09:07;;;;;;;14.40;9.60;;;;;;;20.43;94.32;94674.34;5110968;28;20202;-73
2023/06/24 03:11:42;;;;;;;15.20;9.52;;;;;;;20.83;92.41;94672.47;5111207;28;20225;-72
2023/06/24 03:14:09;;;;;;;15.23;9.38;;;;;;;21.15;89.46;94667.75;5111181;28;20543;-73
2023/06/24 03:16:36;;;;;;;16.90;9.35;;;;;;;21.41;87.92;94661.06;5124340;27;20197;-73
2023/06/24 03:19:03;;;;;;;12.60;8.38;;;;;;;21.59;86.81;94667.31;5090373;28;20202;-73
2023/06/24 03:21:30;;;;;;;15.57;9.18;;;;;;;21.78;86.22;94657.06;5090928;28;20657;-74
2023/06/24 03:23:58;;;;;;;15.18;8.95;;;;;;;22.32;83.65;94658.44;5111356;28;20259;-75
2023/06/24 03:26:25;;;;;;;16.42;11.60;;;;;;;22.71;81.66;94655.47;5110616;28;20686;-73
2023/06/24 03:28:53;;;;;;;17.25;11.93;;;;;;;23.10;79.99;94657.97;5110812;28;20205;-73
2023/06/24 03:31:23;;;;;;;15.13;11.43;;;;;;;23.19;78.75;94666.59;5110891;28;20198;-73
2023/06/24 03:33:49;;;;;;;18.83;9.65;;;;;;;23.00;77.92;94686.47;5110535;28;20209;-73
2023/06/24 03:36:16;;;;;;;14.43;9.25;;;;;;;22.96;78.56;94688.50;5113076;27;20206;-73
2023/06/24 03:38:43;;;;;;;13.30;9.27;;;;;;;23.80;75.79;94691.75;5112241;27;20211;-73
2023/06/24 03:41:10;;;;;;;15.60;11.40;;;;;;;24.40;73.25;94690.31;5090133;28;20210;-73
2023/06/24 03:43:37;;;;;;;14.35;11.07;;;;;;;24.71;71.93;94680.81;5090243;28;20234;-73
2023/06/24 03:46:05;;;;;;;16.35;10.05;;;;;;;24.93;70.90;94697.13;5107269;28;20729;-73
2023/06/24 03:48:31;;;;;;;14.02;9.52;;;;;;;25.57;69.15;94696.91;5120812;27;20250;-73
2023/06/24 03:50:58;;;;;;;14.13;9.20;;;;;;;26.10;67.05;94709.88;5095979;27;20721;-73
2023/06/24 03:53:25;;;;;;;13.40;9.30;;;;;;;26.69;64.92;94692.47;5090354;28;20223;-73
2023/06/24 03:55:52;;;;;;;14.98;9.20;;;;;;;27.41;62.65;94692.44;5090121;28;20210;-73
2023/06/24 03:58:20;;;;;;;14.77;9.80;;;;;;;28.05;60.60;94692.81;5090245;28;20267;-73
2023/06/24 04:00:49;;;;;;;14.23;9.52;;;;;;;28.47;59.23;94699.25;5109499;28;20198;-73
2023/06/24 04:03:18;;;;;;;14.32;10.88;;;;;;;28.80;58.66;94684.00;5110248;28;20672;-73
2023/06/24 04:05:45;;;;;;;17.58;11.85;;;;;;;28.72;57.89;94688.16;5110247;28;20209;-74
2023/06/24 04:08:11;;;;;;;15.63;11.75;;;;;;;29.27;56.89;94672.16;5110081;28;20269;-74
2023/06/24 04:10:38;;;;;;;15.73;11.88;;;;;;;29.25;55.96;94691.38;5109958;28;20202;-74
2023/06/24 04:13:05;;;;;;;13.18;10.57;;;;;;;29.76;54.51;94699.75;5110114;28;20604;-75
2023/06/24 04:15:32;;;;;;;15.48;11.90;;;;;;;30.19;53.28;94691.50;5110155;28;20254;-74
2023/06/24 04:17:58;;;;;;;14.00;11.30;;;;;;;30.29;53.35;94683.94;5110163;28;20210;-74
2023/06/24 04:20:26;;;;;;;14.20;12.05;;;;;;;30.78;51.47;94680.56;5110044;28;20721;-74
2023/06/24 04:22:53;;;;;;;16.08;11.32;;;;;;;31.01;51.11;94683.69;5109724;28;20228;-75
2023/06/24 04:25:20;;;;;;;14.10;11.93;;;;;;;31.14;50.84;94677.25;5109715;28;20534;-75
2023/06/24 04:27:47;;;;;;;17.80;12.65;;;;;;;31.51;49.83;94670.53;5109864;28;20278;-75
2023/06/24 04:30:14;;;;;;;13.18;11.50;;;;;;;32.29;48.30;94672.09;5109891;28;20679;-75
2023/06/24 04:32:40;;;;;;;14.20;10.82;;;;;;;32.47;47.49;94675.66;5109937;28;20304;-75
2023/06/24 04:35:08;;;;;;;14.63;11.45;;;;;;;32.95;46.21;94673.09;5130044;27;20713;-75
2023/06/24 04:37:36;;;;;;;13.48;11.80;;;;;;;33.18;46.61;94664.00;5118653;27;20197;-75
2023/06/24 04:40:03;;;;;;;15.38;11.05;;;;;;;32.74;46.19;94674.09;5124023;27;20670;-75
2023/06/24 04:42:30;;;;;;;12.85;11.02;;;;;;;33.31;45.95;94666.63;5122866;27;20703;-76
2023/06/24 04:44:57;;;;;;;17.35;11.93;;;;;;;32.95;45.11;94669.53;5110589;27;20285;-76
2023/06/24 04:47:23;;;;;;;13.45;11.85;;;;;;;32.75;45.49;94661.63;5107043;28;20629;-76
2023/06/24 04:49:50;;;;;;;17.08;11.95;;;;;;;33.81;43.99;94664.97;5108835;28;20274;-76
2023/06/24 04:52:17;;;;;;;15.93;11.73;;;;;;;33.19;43.34;94676.78;5109059;28;20346;-77
2023/06/24 04:54:45;;;;;;;12.68;11.35;;;;;;;33.98;42.76;94673.00;5102736;28;20197;-76
2023/06/24 04:57:25;;;;;;;15.18;11.80;;;;;;;32.26;45.80;94685.00;5099565;28;20210;-76
2023/06/24 04:59:51;;;;;;;14.85;11.95;;;;;;;32.47;45.10;94684.09;5103080;28;20246;-74
2023/06/24 05:02:18;;;;;;;20.83;13.10;;;;;;;30.70;49.74;94694.06;5097591;28;20198;-74
2023/06/24 05:04:45;;;;;;;17.30;12.48;;;;;;;31.72;47.80;94678.06;5097598;28;20263;-77
2023/06/24 05:07:12;;;;;;;14.13;12.00;;;;;;;32.02;47.56;94670.03;5100038;28;20233;-76
2023/06/24 05:09:39;;;;;;;15.13;12.07;;;;;;;31.49;49.06;94670.19;5106752;28;20193;-85
2023/06/24 05:12:08;;;;;;;15.13;11.82;;;;;;;32.67;47.06;94685.59;5099906;28;20205;-80
2023/06/24 05:14:35;;;;;;;13.65;11.80;;;;;;;32.25;46.05;94693.91;5107799;28;20194;-80
2023/06/24 05:17:02;;;;;;;13.40;12.00;;;;;;;32.22;46.64;94684.41;5107032;28;20193;-77
2023/06/24 05:19:29;;;;;;;13.60;11.77;;;;;;;33.65;43.87;94673.78;5108617;28;20272;-81
2023/06/24 05:21:56;;;;;;;15.93;11.38;;;;;;;34.40;42.14;94667.25;5107843;28;20201;-78
2023/06/24 05:24:23;;;;;;;11.98;10.68;;;;;;;34.76;40.78;94668.94;5101437;28;20549;-82
2023/06/24 05:26:51;;;;;;;13.88;11.60;;;;;;;35.74;38.79;94667.53;5105362;28;20226;-81
2023/06/24 05:29:19;;;;;;;14.55;11.35;;;;;;;36.09;38.44;94659.03;5100466;28;20266;-82
2023/06/24 05:31:47;;;;;;;12.23;11.00;;;;;;;36.57;36.63;94665.03;5098893;28;20201;-82
2023/06/24 05:34:13;;;;;;;13.52;9.73;;;;;;;36.05;37.58;94666.19;5099560;28;20208;-77
2023/06/24 05:36:43;;;;;;;10.18;9.20;;;;;;;35.73;38.06;94665.97;5102246;28;20198;-84
2023/06/24 05:39:11;;;;;;;10.48;9.48;;;;;;;34.87;39.40;94674.78;5098451;28;20202;-85
2023/06/24 05:41:38;;;;;;;10.77;9.75;;;;;;;34.95;40.43;94670.34;5096201;28;20193;-82
2023/06/24 05:44:06;;;;;;;10.65;9.20;;;;;;;35.21;38.74;94665.66;5096816;28;20224;-83
2023/06/24 05:46:34;;;;;;;10.60;8.90;;;;;;;33.05;41.17;94677.47;5100812;28;20205;-81
2023/06/24 05:49:01;;;;;;;11.27;8.90;;;;;;;32.80;42.07;94675.03;5096706;28;20287;-81
2023/06/24 05:51:27;;;;;;;11.60;8.98;;;;;;;33.57;41.80;94666.19;5098451;28;20198;-83
2023/06/24 05:53:54;;;;;;;10.15;9.07;;;;;;;33.84;40.78;94672.47;5105118;28;20201;-84
2023/06/24 05:56:22;;;;;;;12.70;9.00;;;;;;;34.32;41.10;94663.22;5107476;28;20283;-83
2023/06/24 05:58:49;;;;;;;10.55;9.43;;;;;;;34.97;38.82;94667.81;5103386;28;20520;-82
2023/06/24 06:01:16;;;;;;;11.77;9.45;;;;;;;34.04;39.66;94665.44;5102162;28;20197;-81
2023/06/24 06:03:44;;;;;;;10.63;9.52;;;;;;;34.13;40.36;94659.78;5101229;28;20202;-80
2023/06/24 06:06:11;;;;;;;10.82;9.65;;;;;;;34.66;39.84;94659.03;5101719;28;20562;-80
2023/06/24 06:08:37;;;;;;;11.35;10.18;;;;;;;34.21;40.39;94663.75;5104245;27;20229;-82
2023/06/24 06:11:04;;;;;;;16.20;12.05;;;;;;;32.77;42.47;94664.75;5107955;27;20636;-81
2023/06/24 06:13:32;;;;;;;13.85;11.88;;;;;;;32.78;43.52;94657.88;5107544;27;20202;-80
2023/06/24 06:15:59;;;;;;;17.38;12.45;;;;;;;33.61;41.87;94649.94;5101286;27;20198;-78
2023/06/24 06:18:25;;;;;;;14.35;12.63;;;;;;;34.17;41.78;94641.44;5101098;27;20473;-78
2023/06/24 06:20:53;;;;;;;16.63;12.65;;;;;;;34.44;40.93;94648.16;5104806;27;20198;-77
2023/06/24 06:23:20;;;;;;;17.48;13.00;;;;;;;34.96;39.79;94659.84;5104977;27;20724;-80
2023/06/24 06:25:47;;;;;;;18.15;14.15;;;;;;;34.07;41.63;94653.25;5103256;27;20201;-78
2023/06/24 06:28:14;;;;;;;15.57;13.02;;;;;;;33.39;43.44;94655.81;5104827;27;20229;-80
2023/06/24 06:30:41;;;;;;;15.15;12.60;;;;;;;34.33;42.48;94647.91;5104966;27;20198;-80
2023/06/24 06:33:07;;;;;;;14.25;12.73;;;;;;;34.02;41.60;94653.94;5106107;27;20296;-83
2023/06/24 06:35:34;;;;;;;15.88;13.15;;;;;;;32.89;43.18;94663.78;5104463;27;20194;-79
2023/06/24 06:38:02;;;;;;;15.68;12.73;;;;;;;33.34;43.74;94665.69;5100634;28;20471;-82
2023/06/24 06:40:29;;;;;;;16.67;13.18;;;;;;;34.31;41.39;94656.81;5099944;28;20335;-85
2023/06/24 06:42:56;;;;;;;15.20;11.93;;;;;;;35.19;39.92;94664.59;5098229;27;20275;-84
2023/06/24 06:45:23;;;;;;;16.52;11.77;;;;;;;36.62;38.09;94667.16;5101198;27;20468;-79
2023/06/24 06:47:50;;;;;;;14.30;11.93;;;;;;;35.99;37.47;94666.09;5100466;28;20226;-89
2023/06/24 06:50:17;;;;;;;16.58;11.23;;;;;;;35.07;38.90;94676.94;5103126;28;20255;-81
2023/06/24 06:52:44;;;;;;;12.57;11.27;;;;;;;35.99;37.01;94663.28;5102079;28;20271;-82
2023/06/24 06:55:12;;;;;;;16.58;12.98;;;;;;;35.67;38.41;94665.13;5101596;28;20202;-81
2023/06/24 06:57:39;;;;;;;16.05;12.68;;;;;;;36.09;38.64;94669.53;5103092;28;20201;-81
2023/06/24 07:00:07;;;;;;;15.70;12.45;;;;;;;34.74;39.62;94665.81;5103109;27;20198;-81
2023/06/24 07:02:34;;;;;;;16.92;12.90;;;;;;;34.55;40.19;94671.66;5103271;27;20198;-78
2023/06/24 07:05:01;;;;;;;13.63;12.15;;;;;;;35.75;38.25;94657.81;5101938;28;20193;-79
2023/06/24 07:07:27;;;;;;;16.83;12.82;;;;;;;36.47;36.85;94672.13;5103637;27;20225;-78
2023/06/24 07:09:54;;;;;;;16.10;12.18;;;;;;;36.48;37.20;94664.44;5103186;27;20254;-81
2023/06/24 07:12:23;;;;;;;15.23;12.75;;;;;;;34.99;39.54;94675.78;5107181;27;20257;-80
2023/06/24 07:14:50;;;;;;;16.13;13.15;;;;;;;34.19;40.63;94674.72;5108043;28;20202;-81
2023/06/24 07:17:17;;;;;;;14.70;12.98;;;;;;;34.01;40.95;94672.84;5114136;27;20200;-81
2023/06/24 07:19:44;;;;;;;17.83;13.00;;;;;;;35.09;39.46;94669.56;5117970;27;20263;-80
2023/06/24 07:22:10;;;;;;;13.07;11.70;;;;;;;36.26;38.57;94667.75;5104837;27;20704;-80
2023/06/24 07:24:37;;;;;;;14.32;11.70;;;;;;;36.89;36.70;94662.31;5113549;27;20202;-79
2023/06/24 07:27:04;;;;;;;17.85;12.68;;;;;;;36.31;37.82;94664.22;5109260;28;20246;-81
2023/06/24 07:29:33;;;;;;;13.55;12.13;;;;;;;35.94;37.29;94661.94;5114136;27;20633;-79
2023/06/24 07:32:01;;;;;;;13.48;11.98;;;;;;;36.00;37.34;94666.88;5110246;28;20749;-79
2023/06/24 07:34:29;;;;;;;13.77;12.23;;;;;;;35.55;38.56;94661.34;5104929;28;20309;-82
2023/06/24 07:36:57;;;;;;;13.80;11.80;;;;;;;34.88;39.84;94667.91;5102580;27;20194;-79
2023/06/24 07:39:23;;;;;;;14.00;11.75;;;;;;;34.76;40.52;94668.94;5104658;27;20208;-78
2023/06/24 07:41:50;;;;;;;14.43;12.90;;;;;;;32.93;43.60;94680.47;5105936;27;20229;-78
2023/06/24 07:44:18;;;;;;;13.85;12.32;;;;;;;33.63;41.87;94664.28;5097572;28;20260;-82
2023/06/24 07:46:51;;;;;;;16.63;12.63;;;;;;;33.48;41.79;94658.59;5110025;28;20251;-76
2023/06/24 07:49:17;;;;;;;14.30;12.77;;;;;;;33.18;43.14;94666.03;5102739;28;20325;-80
2023/06/24 07:51:46;;;;;;;13.32;11.88;;;;;;;34.19;41.75;94660.66;5099205;27;20217;-80
2023/06/24 07:54:13;;;;;;;17.13;12.13;;;;;;;33.72;43.12;94659.41;5110309;28;20205;-78
2023/06/24 07:56:40;;;;;;;14.32;11.52;;;;;;;34.36;41.16;94664.63;5106405;28;20197;-81
2023/06/24 07:59:06;;;;;;;12.48;10.73;;;;;;;35.31;40.23;94662.75;5105535;27;20197;-78
2023/06/24 08:01:33;;;;;;;12.15;10.85;;;;;;;34.62;41.52;94672.50;5103032;27;20305;-80
2023/06/24 08:04:01;;;;;;;12.35;11.05;;;;;;;34.16;41.79;94667.25;5102395;28;20201;-81
2023/06/24 08:06:28;;;;;;;12.32;11.05;;;;;;;32.09;44.97;94686.56;5109285;28;20202;-80
2023/06/24 08:08:55;;;;;;;12.18;10.85;;;;;;;32.83;44.72;94679.69;5118968;27;20225;-80
2023/06/24 08:11:22;;;;;;;11.88;10.60;;;;;;;33.97;43.58;94660.19;5105333;28;20198;-81
2023/06/24 08:13:49;;;;;;;15.63;11.65;;;;;;;34.10;43.83;94667.13;5105324;27;20218;-83
2023/06/24 08:16:18;;;;;;;15.95;11.85;;;;;;;33.64;44.10;94663.81;5100299;27;20204;-80
2023/06/24 08:18:46;;;;;;;14.50;11.82;;;;;;;33.87;43.17;94663.09;5106282;28;20290;-79
2023/06/24 08:21:14;;;;;;;12.07;10.88;;;;;;;33.67;43.43;94660.03;5104435;28;20232;-79
2023/06/24 08:23:41;;;;;;;14.65;11.75;;;;;;;33.89;43.99;94660.53;5099246;28;20277;-83
2023/06/24 08:26:08;;;;;;;17.35;12.20;;;;;;;33.17;43.47;94662.44;5109982;28;20288;-79
2023/06/24 08:28:35;;;;;;;14.02;11.73;;;;;;;32.66;45.10;94661.63;5109450;28;20315;-79
2023/06/24 08:31:02;;;;;;;15.18;11.43;;;;;;;31.99;45.70;94665.34;5109517;28;20225;-79
2023/06/24 08:33:28;;;;;;;16.88;12.48;;;;;;;32.35;46.00;94659.00;5109433;28;20493;-79
2023/06/24 08:35:55;;;;;;;14.15;11.50;;;;;;;32.64;44.95;94658.50;5123122;27;20217;-81
2023/06/24 08:38:23;;;;;;;13.38;11.43;;;;;;;32.66;46.19;94661.63;5089601;28;20209;-81
2023/06/24 08:40:51;;;;;;;13.77;11.93;;;;;;;33.50;44.89;94650.44;5092964;28;20255;-81
2023/06/24 08:43:17;;;;;;;13.27;11.98;;;;;;;32.64;44.89;94653.69;5108858;28;20308;-77
2023/06/24 08:45:44;;;;;;;13.00;11.60;;;;;;;31.39;47.03;94651.81;5109423;28;20205;-78
2023/06/24 08:48:11;;;;;;;13.80;12.05;;;;;;;31.29;47.60;94653.03;5106953;28;20675;-81
2023/06/24 08:50:46;;;;;;;14.50;11.55;;;;;;;31.04;47.97;94645.56;5109401;28;20194;-78
2023/06/24 08:53:14;;;;;;;12.82;11.48;;;;;;;31.22;48.88;94636.50;5108121;28;20296;-81
2023/06/24 08:55:46;;;;;;;14.93;12.35;;;;;;;31.59;48.28;94642.97;5109233;28;20193;-79
2023/06/24 08:58:14;;;;;;;12.82;11.45;;;;;;;31.80;47.79;94642.13;5108563;28;20198;-80
2023/06/24 09:00:42;;;;;;;14.05;11.27;;;;;;;31.97;48.28;94645.44;5106572;28;20209;-80
2023/06/24 09:03:09;;;;;;;12.80;11.35;;;;;;;33.04;47.18;94642.22;5108289;28;20213;-81
2023/06/24 09:05:36;;;;;;;14.98;11.45;;;;;;;33.11;47.37;94630.63;5111930;28;20276;-81
2023/06/24 09:08:03;;;;;;;11.55;10.45;;;;;;;32.87;46.67;94637.44;5107446;28;20222;-76
2023/06/24 09:10:31;;;;;;;13.63;11.00;;;;;;;33.05;45.39;94631.75;5105647;28;20654;-82
2023/06/24 09:13:00;;;;;;;12.23;11.00;;;;;;;32.78;45.39;94636.22;5108101;28;20201;-79
2023/06/24 09:15:30;;;;;;;12.18;10.95;;;;;;;32.34;46.68;94630.19;5108487;28;20288;-77
2023/06/24 09:17:57;;;;;;;12.88;11.48;;;;;;;32.35;45.79;94634.53;5108325;28;20209;-78
2023/06/24 09:20:24;;;;;;;13.15;11.73;;;;;;;32.71;45.82;94642.13;5108458;28;20209;-79
2023/06/24 09:22:51;;;;;;;13.20;11.85;;;;;;;33.10;45.80;94623.47;5107653;28;20711;-81
2023/06/24 09:25:19;;;;;;;13.63;11.13;;;;;;;33.32;44.83;94628.09;5113982;28;20209;-79
2023/06/24 09:27:52;;;;;;;11.93;10.73;;;;;;;33.85;44.14;94626.25;5104786;28;20234;-81
2023/06/24 09:30:22;;;;;;;13.48;10.52;;;;;;;33.84;45.28;94630.31;5118591;27;20204;-82
2023/06/24 09:32:48;;;;;;;12.10;10.90;;;;;;;33.40;44.46;94637.72;5118476;27;20254;-81
2023/06/24 09:35:18;;;;;;;14.25;11.00;;;;;;;33.35;43.91;94636.31;5112404;28;20206;-80
2023/06/24 09:37:50;;;;;;;13.15;11.02;;;;;;;34.01;43.00;94633.47;5111593;28;20251;-80
2023/06/24 09:40:17;;;;;;;13.32;10.73;;;;;;;34.10;41.97;94629.78;5112114;28;20205;-80
2023/06/24 09:42:49;;;;;;;14.95;11.15;;;;;;;34.14;44.74;94624.78;5113303;27;20225;-81
2023/06/24 09:45:22;;;;;;;12.50;10.68;;;;;;;33.55;45.28;94624.53;5103022;28;20198;-80
2023/06/24 09:47:49;;;;;;;11.02;9.95;;;;;;;33.75;43.87;94626.75;5111982;27;20186;-82
2023/06/24 09:50:16;;;;;;;12.32;10.43;;;;;;;32.89;44.02;94646.94;5111989;28;20283;-77
2023/06/24 09:52:44;;;;;;;10.02;9.13;;;;;;;32.93;42.72;94635.56;5111389;28;20247;-82
2023/06/24 09:55:14;;;;;;;12.57;10.13;;;;;;;32.62;43.70;94633.72;5101178;28;20217;-79
2023/06/24 09:57:43;;;;;;;12.90;10.32;;;;;;;32.18;45.68;94633.28;5110399;28;20250;-79
2023/06/24 10:00:11;;;;;;;10.93;9.82;;;;;;;31.82;45.62;94622.06;5099001;28;20199;-78
2023/06/24 10:02:39;;;;;;;11.15;9.98;;;;;;;32.14;45.33;94621.44;5091424;28;20203;-81
2023/06/24 10:05:07;;;;;;;12.50;10.50;;;;;;;32.04;46.24;94622.69;5090930;28;20214;-80
2023/06/24 10:07:35;;;;;;;12.82;9.80;;;;;;;32.34;46.42;94613.34;5118104;27;20201;-80
2023/06/24 10:10:04;;;;;;;12.50;10.23;;;;;;;32.72;44.58;94614.88;5114296;27;20703;-79
2023/06/24 10:12:31;;;;;;;10.93;9.45;;;;;;;32.79;43.58;94611.75;5116616;27;20234;-75
2023/06/24 10:14:58;;;;;;;12.80;10.48;;;;;;;32.08;45.25;94612.09;5090193;28;20206;-83
2023/06/24 10:17:25;;;;;;;11.68;10.07;;;;;;;32.85;44.92;94595.78;5090458;28;20255;-80
2023/06/24 10:19:55;;;;;;;11.77;10.40;;;;;;;33.13;44.39;94588.81;5090183;28;20565;-80
2023/06/24 10:22:23;;;;;;;11.88;10.68;;;;;;;32.55;45.29;94591.97;5090480;28;20591;-79
2023/06/24 10:24:52;;;;;;;12.73;10.30;;;;;;;31.89;45.35;94583.28;5117880;27;20209;-85
2023/06/24 10:27:21;;;;;;;14.05;9.70;;;;;;;31.81;45.98;94575.66;5090569;28;20255;-84
2023/06/24 10:29:50;;;;;;;10.60;9.50;;;;;;;32.01;44.90;94571.13;5090314;28;20269;-81
2023/06/24 10:32:18;;;;;;;10.45;9.32;;;;;;;32.43;44.76;94564.88;5090680;28;20210;-78
2023/06/24 10:34:46;;;;;;;10.80;9.70;;;;;;;32.43;44.55;94564.88;5090564;28;20259;-80
2023/06/24 10:37:19;;;;;;;13.30;9.65;;;;;;;32.54;44.68;94562.34;5090726;28;20649;-82
2023/06/24 10:39:51;;;;;;;11.25;10.15;;;;;;;32.43;46.38;94557.22;5089527;28;20206;-80
2023/06/24 10:42:30;;;;;;;14.20;10.25;;;;;;;31.96;44.89;94562.59;5090899;28;20287;-81
2023/06/24 10:44:58;;;;;;;12.32;10.23;;;;;;;32.03;44.94;94553.84;5096705;28;20201;-81
2023/06/24 10:47:25;;;;;;;11.93;9.20;;;;;;;31.49;45.26;94549.78;5107584;27;20691;-79
2023/06/24 10:49:52;;;;;;;10.02;8.90;;;;;;;31.64;44.56;94545.16;5123835;27;20225;-80
2023/06/24 10:52:22;;;;;;;10.35;9.25;;;;;;;31.68;44.47;94537.38;5095981;27;20252;-78
2023/06/24 10:54:49;;;;;;;10.70;8.68;;;;;;;31.61;44.92;94529.22;5122748;27;20239;-82
2023/06/24 10:57:21;;;;;;;10.43;9.00;;;;;;;32.14;45.24;94526.09;5113335;27;20721;-80
2023/06/24 10:59:49;;;;;;;13.38;10.07;;;;;;;32.84;42.95;94527.66;5116404;27;20700;-80
2023/06/24 11:02:17;;;;;;;10.35;8.80;;;;;;;32.71;43.27;94531.91;5109556;27;20727;-80
2023/06/24 11:04:45;;;;;;;9.43;8.50;;;;;;;33.23;43.50;94524.16;5109381;28;20248;-78
2023/06/24 11:07:12;;;;;;;9.63;8.63;;;;;;;33.11;42.77;94512.69;5105163;28;20202;-79
2023/06/24 11:09:41;;;;;;;10.15;9.23;;;;;;;32.75;43.98;94516.47;5106667;27;20726;-78
2023/06/24 11:12:10;;;;;;;10.57;8.40;;;;;;;32.95;43.76;94515.91;5107878;27;20259;-81
2023/06/24 11:14:38;;;;;;;12.10;9.30;;;;;;;32.89;44.81;94517.03;5102596;27;20208;-77
2023/06/24 11:17:05;;;;;;;10.50;9.13;;;;;;;32.76;43.00;94514.47;5110501;27;20201;-80
2023/06/24 11:19:32;;;;;;;10.73;8.98;;;;;;;33.00;43.19;94518.06;5101595;28;20209;-79
2023/06/24 11:22:03;;;;;;;10.05;7.82;;;;;;;33.00;42.17;94515.25;5104861;28;20229;-83
2023/06/24 11:24:30;;;;;;;9.57;7.97;;;;;;;32.88;43.72;94524.69;5108645;27;20248;-80